sensor_id;sensor_type;location;lat;lon;timestamp;pressure;altitude;pressure_sealevel;temperature;humidity
45621;BME280;31345;51.522;10.702;2023-02-28T00:00:31;100412.03;;;-0.88;86.42
45621;BME280;31345;51.522;10.702;2023-02-28T00:02:59;100417.16;;;-0.88;88.35
45621;BME280;31345;51.522;10.702;2023-02-28T00:05:33;100415.44;;;-1.02;89.51
45621;BME280;31345;51.522;10.702;2023-02-28T00:08:01;100412.00;;;-1.01;88.98
45621;BME280;31345;51.522;10.702;2023-02-28T00:10:34;100416.25;;;-1.07;91.18
45621;BME280;31345;51.522;10.702;2023-02-28T00:13:07;100411.13;;;-1.06;92.83
45621;BME280;31345;51.522;10.702;2023-02-28T00:15:39;100421.38;;;-1.04;92.07
45621;BME280;31345;51.522;10.702;2023-02-28T00:18:12;100412.06;;;-0.73;91.21
45621;BME280;31345;51.522;10.702;2023-02-28T00:20:46;100418.88;;;-0.95;92.48
45621;BME280;31345;51.522;10.702;2023-02-28T00:23:18;100416.25;;;-1.11;91.22
45621;BME280;31345;51.522;10.702;2023-02-28T00:25:51;100411.13;;;-1.09;90.04
45621;BME280;31345;51.522;10.702;2023-02-28T00:28:24;100408.63;;;-0.81;87.10
45621;BME280;31345;51.522;10.702;2023-02-28T00:30:57;100408.53;;;-1.04;91.81
45621;BME280;31345;51.522;10.702;2023-02-28T00:33:31;100417.94;;;-1.16;92.45
45621;BME280;31345;51.522;10.702;2023-02-28T00:36:06;100415.38;;;-1.08;92.75
45621;BME280;31345;51.522;10.702;2023-02-28T00:38:41;100422.25;;;-1.10;93.06
45621;BME280;31345;51.522;10.702;2023-02-28T00:41:13;100425.63;;;-1.19;95.49
45621;BME280;31345;51.522;10.702;2023-02-28T00:43:41;100424.75;;;-1.24;95.42
45621;BME280;31345;51.522;10.702;2023-02-28T00:46:10;100429.03;;;-1.22;94.16
45621;BME280;31345;51.522;10.702;2023-02-28T00:48:43;100421.34;;;-1.17;92.59
45621;BME280;31345;51.522;10.702;2023-02-28T00:51:17;100429.06;;;-1.11;92.68
45621;BME280;31345;51.522;10.702;2023-02-28T00:53:44;100426.50;;;-1.12;92.89
45621;BME280;31345;51.522;10.702;2023-02-28T00:56:12;100426.53;;;-1.06;92.55
45621;BME280;31345;51.522;10.702;2023-02-28T00:58:40;100423.94;;;-1.12;93.37
45621;BME280;31345;51.522;10.702;2023-02-28T01:01:13;100431.63;;;-1.15;94.04
45621;BME280;31345;51.522;10.702;2023-02-28T01:03:45;100427.34;;;-1.13;94.22
45621;BME280;31345;51.522;10.702;2023-02-28T01:06:20;100423.91;;;-1.15;94.66
45621;BME280;31345;51.522;10.702;2023-02-28T01:08:53;100420.50;;;-1.17;95.10
45621;BME280;31345;51.522;10.702;2023-02-28T01:11:20;100423.91;;;-1.15;94.62
45621;BME280;31345;51.522;10.702;2023-02-28T01:13:48;100426.47;;;-1.22;95.57
45621;BME280;31345;51.522;10.702;2023-02-28T01:16:20;100422.19;;;-1.21;96.75
45621;BME280;31345;51.522;10.702;2023-02-28T01:18:53;100419.59;;;-1.23;95.86
45621;BME280;31345;51.522;10.702;2023-02-28T01:21:28;100423.00;;;-1.25;97.11
45621;BME280;31345;51.522;10.702;2023-02-28T01:23:57;100420.47;;;-1.22;97.27
45621;BME280;31345;51.522;10.702;2023-02-28T01:26:30;100412.78;;;-1.22;97.73
45621;BME280;31345;51.522;10.702;2023-02-28T01:28:58;100413.66;;;-1.20;97.78
45621;BME280;31345;51.522;10.702;2023-02-28T01:31:30;100414.53;;;-1.15;96.88
45621;BME280;31345;51.522;10.702;2023-02-28T01:33:58;100403.47;;;-0.92;91.34
45621;BME280;31345;51.522;10.702;2023-02-28T01:36:34;100406.00;;;-0.98;92.93
45621;BME280;31345;51.522;10.702;2023-02-28T01:39:03;100404.34;;;-0.66;89.96
45621;BME280;31345;51.522;10.702;2023-02-28T01:41:35;100400.09;;;-0.72;89.19
45621;BME280;31345;51.522;10.702;2023-02-28T01:47:14;100401.81;;;-0.63;88.54
45621;BME280;31345;51.522;10.702;2023-02-28T01:49:48;100385.56;;;-0.50;85.65
45621;BME280;31345;51.522;10.702;2023-02-28T01:52:24;100383.00;;;-0.40;84.87
45621;BME280;31345;51.522;10.702;2023-02-28T01:55:00;100384.69;;;-0.38;84.79
45621;BME280;31345;51.522;10.702;2023-02-28T01:57:37;100386.41;;;-0.32;84.63
45621;BME280;31345;51.522;10.702;2023-02-28T02:00:12;100391.56;;;-0.26;85.71
45621;BME280;31345;51.522;10.702;2023-02-28T02:02:53;100384.69;;;-0.27;85.21
45621;BME280;31345;51.522;10.702;2023-02-28T02:05:28;100385.56;;;-0.23;85.11
45621;BME280;31345;51.522;10.702;2023-02-28T02:08:02;100388.13;;;-0.20;84.92
45621;BME280;31345;51.522;10.702;2023-02-28T02:10:41;100383.00;;;-0.25;85.65
45621;BME280;31345;51.522;10.702;2023-02-28T02:13:30;100385.56;;;-0.29;86.71
45621;BME280;31345;51.522;10.702;2023-02-28T02:16:17;100381.28;;;-0.29;86.21
45621;BME280;31345;51.522;10.702;2023-02-28T02:18:53;100379.56;;;-0.25;84.27
45621;BME280;31345;51.522;10.702;2023-02-28T02:21:57;100378.69;;;-0.23;86.28
45621;BME280;31345;51.522;10.702;2023-02-28T02:25:00;100370.13;;;-0.26;85.62
45621;BME280;31345;51.522;10.702;2023-02-28T02:28:01;100371.00;;;-0.30;86.25
45621;BME280;31345;51.522;10.702;2023-02-28T02:30:53;100374.44;;;-0.32;84.94
45621;BME280;31345;51.522;10.702;2023-02-28T02:34:10;100377.84;;;-0.29;85.36
45621;BME280;31345;51.522;10.702;2023-02-28T02:36:48;100372.69;;;-0.31;87.17
45621;BME280;31345;51.522;10.702;2023-02-28T02:39:29;100362.41;;;-0.29;85.36
45621;BME280;31345;51.522;10.702;2023-02-28T02:42:11;100370.16;;;-0.37;86.24
45621;BME280;31345;51.522;10.702;2023-02-28T02:44:51;100372.72;;;-0.40;88.25
45621;BME280;31345;51.522;10.702;2023-02-28T02:47:26;100368.44;;;-0.40;88.37
45621;BME280;31345;51.522;10.702;2023-02-28T02:50:04;100375.28;;;-0.45;88.41
45621;BME280;31345;51.522;10.702;2023-02-28T02:52:42;100373.56;;;-0.41;88.17
45621;BME280;31345;51.522;10.702;2023-02-28T02:55:19;100377.84;;;-0.51;88.59
45621;BME280;31345;51.522;10.702;2023-02-28T02:57:56;100384.69;;;-0.38;87.99
45621;BME280;31345;51.522;10.702;2023-02-28T03:00:29;100370.16;;;-0.34;87.18
45621;BME280;31345;51.522;10.702;2023-02-28T03:02:59;100375.28;;;-0.29;87.09
45621;BME280;31345;51.522;10.702;2023-02-28T03:05:41;100371.00;;;-0.30;88.07
45621;BME280;31345;51.522;10.702;2023-02-28T03:08:14;100371.84;;;-0.39;86.84
45621;BME280;31345;51.522;10.702;2023-02-28T03:10:50;100374.44;;;-0.46;86.60
45621;BME280;31345;51.522;10.702;2023-02-28T03:13:44;100374.41;;;-0.39;86.77
45621;BME280;31345;51.522;10.702;2023-02-28T03:16:32;100376.13;;;-0.51;87.06
45621;BME280;31345;51.522;10.702;2023-02-28T03:19:11;100371.84;;;-0.42;86.06
45621;BME280;31345;51.522;10.702;2023-02-28T03:22:00;100370.13;;;-0.33;86.15
45621;BME280;31345;51.522;10.702;2023-02-28T03:24:43;100370.97;;;-0.24;84.78
45621;BME280;31345;51.522;10.702;2023-02-28T03:27:20;100376.13;;;-0.29;85.74
45621;BME280;31345;51.522;10.702;2023-02-28T03:29:57;100375.28;;;-0.34;85.30
45621;BME280;31345;51.522;10.702;2023-02-28T03:32:35;100371.84;;;-0.35;86.52
45621;BME280;31345;51.522;10.702;2023-02-28T03:35:09;100372.69;;;-0.29;85.05
45621;BME280;31345;51.522;10.702;2023-02-28T03:37:42;100374.44;;;-0.33;84.66
45621;BME280;31345;51.522;10.702;2023-02-28T03:40:20;100374.41;;;-0.39;85.45
45621;BME280;31345;51.522;10.702;2023-02-28T03:42:59;100369.28;;;-0.25;85.41
45621;BME280;31345;51.522;10.702;2023-02-28T03:45:35;100373.56;;;-0.29;86.00
45621;BME280;31345;51.522;10.702;2023-02-28T03:48:09;100383.00;;;-0.39;85.94
45621;BME280;31345;51.522;10.702;2023-02-28T03:50:41;100372.69;;;-0.29;86.07
45621;BME280;31345;51.522;10.702;2023-02-28T03:53:20;100383.00;;;-0.22;86.32
45621;BME280;31345;51.522;10.702;2023-02-28T03:55:49;100384.69;;;-0.24;86.72
45621;BME280;31345;51.522;10.702;2023-02-28T03:58:29;100376.16;;;-0.26;87.08
45621;BME280;31345;51.522;10.702;2023-02-28T04:01:05;100377.84;;;-0.26;88.12
45621;BME280;31345;51.522;10.702;2023-02-28T04:03:35;100377.84;;;-0.26;87.41
45621;BME280;31345;51.522;10.702;2023-02-28T04:06:14;100379.56;;;-0.36;88.80
45621;BME280;31345;51.522;10.702;2023-02-28T04:08:49;100380.44;;;-0.36;88.21
45621;BME280;31345;51.522;10.702;2023-02-28T04:11:21;100382.13;;;-0.28;87.94
45621;BME280;31345;51.522;10.702;2023-02-28T04:13:49;100378.69;;;-0.23;86.73
45621;BME280;31345;51.522;10.702;2023-02-28T04:16:22;100372.72;;;-0.25;86.91
45621;BME280;31345;51.522;10.702;2023-02-28T04:18:49;100387.28;;;-0.30;86.77
45621;BME280;31345;51.522;10.702;2023-02-28T04:21:22;100376.97;;;-0.39;86.92
45621;BME280;31345;51.522;10.702;2023-02-28T04:23:56;100381.25;;;-0.23;87.81
45621;BME280;31345;51.522;10.702;2023-02-28T04:26:28;100385.56;;;-0.39;86.43
45621;BME280;31345;51.522;10.702;2023-02-28T04:29:04;100385.53;;;-0.33;87.66
45621;BME280;31345;51.522;10.702;2023-02-28T04:31:37;100385.56;;;-0.36;87.70
45621;BME280;31345;51.522;10.702;2023-02-28T04:34:05;100382.97;;;-0.43;86.12
45621;BME280;31345;51.522;10.702;2023-02-28T04:36:38;100385.56;;;-0.50;86.66
45621;BME280;31345;51.522;10.702;2023-02-28T04:39:06;100381.28;;;-0.57;87.23
45621;BME280;31345;51.522;10.702;2023-02-28T04:41:35;100391.53;;;-0.48;87.75
45621;BME280;31345;51.522;10.702;2023-02-28T04:44:03;100393.25;;;-0.65;88.15
45621;BME280;31345;51.522;10.702;2023-02-28T04:46:36;100393.25;;;-0.64;88.51
45621;BME280;31345;51.522;10.702;2023-02-28T04:49:08;100402.66;;;-0.75;88.67
45621;BME280;31345;51.522;10.702;2023-02-28T04:51:42;100396.66;;;-0.71;89.22
45621;BME280;31345;51.522;10.702;2023-02-28T04:54:11;100397.44;;;-0.97;90.63
45621;BME280;31345;51.522;10.702;2023-02-28T04:56:44;100394.94;;;-0.86;90.89
45621;BME280;31345;51.522;10.702;2023-02-28T04:59:17;100394.03;;;-0.91;90.40
45621;BME280;31345;51.522;10.702;2023-02-28T05:01:49;100394.91;;;-0.92;88.78
45621;BME280;31345;51.522;10.702;2023-02-28T05:04:17;100394.03;;;-0.94;89.56
45621;BME280;31345;51.522;10.702;2023-02-28T05:06:50;100393.19;;;-0.92;89.79
45621;BME280;31345;51.522;10.702;2023-02-28T05:09:24;100396.59;;;-1.01;90.74
45621;BME280;31345;51.522;10.702;2023-02-28T05:11:56;100404.31;;;-0.99;90.53
45621;BME280;31345;51.522;10.702;2023-02-28T05:14:29;100401.66;;;-1.18;90.93
45621;BME280;31345;51.522;10.702;2023-02-28T05:17:01;100404.22;;;-1.18;91.39
45621;BME280;31345;51.522;10.702;2023-02-28T05:19:34;100414.53;;;-1.07;91.50
45621;BME280;31345;51.522;10.702;2023-02-28T05:22:13;100410.25;;;-1.17;92.29
45621;BME280;31345;51.522;10.702;2023-02-28T05:24:42;100416.19;;;-1.23;93.22
45621;BME280;31345;51.522;10.702;2023-02-28T05:27:10;100409.31;;;-1.30;93.29
45621;BME280;31345;51.522;10.702;2023-02-28T05:29:37;100421.31;;;-1.18;93.02
45621;BME280;31345;51.522;10.702;2023-02-28T05:32:14;100422.91;;;-1.50;93.42
45621;BME280;31345;51.522;10.702;2023-02-28T05:34:42;100422.09;;;-1.37;92.89
45621;BME280;31345;51.522;10.702;2023-02-28T05:37:15;100421.19;;;-1.54;95.93
45621;BME280;31345;51.522;10.702;2023-02-28T05:39:49;100428.91;;;-1.48;96.28
45621;BME280;31345;51.522;10.702;2023-02-28T05:42:21;100431.56;;;-1.28;94.87
45621;BME280;31345;51.522;10.702;2023-02-28T05:44:50;100433.22;;;-1.39;94.90
45621;BME280;31345;51.522;10.702;2023-02-28T05:47:18;100431.50;;;-1.40;94.12
45621;BME280;31345;51.522;10.702;2023-02-28T05:49:45;100428.09;;;-1.44;93.28
45621;BME280;31345;51.522;10.702;2023-02-28T05:52:13;100433.22;;;-1.42;94.96
45621;BME280;31345;51.522;10.702;2023-02-28T05:54:40;100431.47;;;-1.50;95.92
45621;BME280;31345;51.522;10.702;2023-02-28T05:57:14;100440.03;;;-1.48;97.05
45621;BME280;31345;51.522;10.702;2023-02-28T05:59:42;100439.16;;;-1.45;95.23
45621;BME280;31345;51.522;10.702;2023-02-28T06:02:12;100438.25;;;-1.55;96.12
45621;BME280;31345;51.522;10.702;2023-02-28T06:04:40;100444.28;;;-1.53;96.62
45621;BME280;31345;51.522;10.702;2023-02-28T06:07:13;100441.72;;;-1.46;97.06
45621;BME280;31345;51.522;10.702;2023-02-28T06:09:41;100441.66;;;-1.61;97.34
45621;BME280;31345;51.522;10.702;2023-02-28T06:12:15;100445.06;;;-1.66;97.14
45621;BME280;31345;51.522;10.702;2023-02-28T06:14:47;100449.31;;;-1.68;97.96
45621;BME280;31345;51.522;10.702;2023-02-28T06:17:15;100448.59;;;-1.47;97.25
45621;BME280;31345;51.522;10.702;2023-02-28T06:19:42;100445.16;;;-1.48;96.98
45621;BME280;31345;51.522;10.702;2023-02-28T06:22:10;100452.91;;;-1.35;94.26
45621;BME280;31345;51.522;10.702;2023-02-28T06:24:42;100447.88;;;-1.16;92.38
45621;BME280;31345;51.522;10.702;2023-02-28T06:27:16;100447.06;;;-1.03;91.08
45621;BME280;31345;51.522;10.702;2023-02-28T06:29:49;100454.81;;;-0.90;90.95
45621;BME280;31345;51.522;10.702;2023-02-28T06:32:20;100447.09;;;-0.97;91.00
45621;BME280;31345;51.522;10.702;2023-02-28T06:34:48;100454.78;;;-0.97;91.04
45621;BME280;31345;51.522;10.702;2023-02-28T06:37:16;100450.50;;;-0.94;90.58
45621;BME280;31345;51.522;10.702;2023-02-28T06:39:44;100447.09;;;-0.89;91.74
45621;BME280;31345;51.522;10.702;2023-02-28T06:42:18;100458.22;;;-0.94;90.79
45621;BME280;31345;51.522;10.702;2023-02-28T06:44:51;100454.81;;;-0.93;92.24
45621;BME280;31345;51.522;10.702;2023-02-28T06:47:18;100456.56;;;-0.86;89.58
45621;BME280;31345;51.522;10.702;2023-02-28T06:49:51;100459.09;;;-0.85;90.10
45621;BME280;31345;51.522;10.702;2023-02-28T06:52:24;100458.25;;;-0.90;88.41
45621;BME280;31345;51.522;10.702;2023-02-28T06:54:51;100462.53;;;-0.87;89.28
45621;BME280;31345;51.522;10.702;2023-02-28T06:57:29;100471.94;;;-0.89;89.61
45621;BME280;31345;51.522;10.702;2023-02-28T07:00:04;100460.84;;;-0.77;86.89
45621;BME280;31345;51.522;10.702;2023-02-28T07:02:34;100468.56;;;-0.76;85.85
45621;BME280;31345;51.522;10.702;2023-02-28T07:05:07;100464.28;;;-0.74;86.72
45621;BME280;31345;51.522;10.702;2023-02-28T07:07:35;100468.59;;;-0.63;85.88
45621;BME280;31345;51.522;10.702;2023-02-28T07:10:10;100478.03;;;-0.58;85.15
45621;BME280;31345;51.522;10.702;2023-02-28T07:12:45;100473.75;;;-0.59;85.87
45621;BME280;31345;51.522;10.702;2023-02-28T07:15:17;100474.59;;;-0.57;84.91
45621;BME280;31345;51.522;10.702;2023-02-28T07:17:45;100483.19;;;-0.53;84.67
45621;BME280;31345;51.522;10.702;2023-02-28T07:20:17;100482.34;;;-0.44;84.58
45621;BME280;31345;51.522;10.702;2023-02-28T07:22:50;100479.78;;;-0.39;84.82
45621;BME280;31345;51.522;10.702;2023-02-28T07:25:28;100477.22;;;-0.38;84.01
45621;BME280;31345;51.522;10.702;2023-02-28T07:28:02;100484.94;;;-0.30;84.81
45621;BME280;31345;51.522;10.702;2023-02-28T07:30:29;100483.19;;;-0.33;84.26
45621;BME280;31345;51.522;10.702;2023-02-28T07:32:57;100481.50;;;-0.35;83.29
45621;BME280;31345;51.522;10.702;2023-02-28T07:35:24;100483.22;;;-0.31;83.61
45621;BME280;31345;51.522;10.702;2023-02-28T07:37:52;100472.09;;;-0.11;81.91
45621;BME280;31345;51.522;10.702;2023-02-28T07:40:24;100478.09;;;-0.01;81.06
45621;BME280;31345;51.522;10.702;2023-02-28T07:42:52;100473.81;;;0.15;81.99
45621;BME280;31345;51.522;10.702;2023-02-28T07:45:26;100482.38;;;0.25;81.55
45621;BME280;31345;51.522;10.702;2023-02-28T07:47:55;100472.94;;;0.36;80.83
45621;BME280;31345;51.522;10.702;2023-02-28T07:50:28;100474.66;;;0.40;79.84
45621;BME280;31345;51.522;10.702;2023-02-28T07:53:02;100484.09;;;0.40;80.46
45621;BME280;31345;51.522;10.702;2023-02-28T07:55:30;100486.66;;;0.37;76.65
45621;BME280;31345;51.522;10.702;2023-02-28T07:58:03;100484.91;;;0.56;78.91
45621;BME280;31345;51.522;10.702;2023-02-28T08:00:32;100478.03;;;0.52;77.77
45621;BME280;31345;51.522;10.702;2023-02-28T08:03:04;100479.75;;;0.67;77.04
45621;BME280;31345;51.522;10.702;2023-02-28T08:05:38;100472.84;;;0.77;74.15
45621;BME280;31345;51.522;10.702;2023-02-28T08:08:11;100484.03;;;0.73;73.42
45621;BME280;31345;51.522;10.702;2023-02-28T08:10:43;100483.16;;;0.70;72.79
45621;BME280;31345;51.522;10.702;2023-02-28T08:13:11;100484.00;;;0.76;70.93
45621;BME280;31345;51.522;10.702;2023-02-28T08:15:41;100489.09;;;0.90;71.54
45621;BME280;31345;51.522;10.702;2023-02-28T08:18:09;100477.94;;;0.94;71.18
45621;BME280;31345;51.522;10.702;2023-02-28T08:20:42;100484.75;;;1.06;70.66
45621;BME280;31345;51.522;10.702;2023-02-28T08:23:14;100479.63;;;1.01;68.65
45621;BME280;31345;51.522;10.702;2023-02-28T08:25:52;100482.13;;;1.17;67.59
45621;BME280;31345;51.522;10.702;2023-02-28T08:28:25;100482.13;;;1.15;69.81
45621;BME280;31345;51.522;10.702;2023-02-28T08:30:59;100479.53;;;1.23;66.37
45621;BME280;31345;51.522;10.702;2023-02-28T08:33:32;100482.97;;;1.23;66.43
45621;BME280;31345;51.522;10.702;2023-02-28T08:36:06;100488.91;;;1.40;69.61
45621;BME280;31345;51.522;10.702;2023-02-28T08:38:34;100476.00;;;1.44;65.49
45621;BME280;31345;51.522;10.702;2023-02-28T08:41:03;100476.84;;;1.46;65.33
45621;BME280;31345;51.522;10.702;2023-02-28T08:43:39;100479.31;;;1.65;67.50
45621;BME280;31345;51.522;10.702;2023-02-28T08:46:11;100476.00;;;1.44;67.96
45621;BME280;31345;51.522;10.702;2023-02-28T08:48:44;100470.00;;;1.36;63.50
45621;BME280;31345;51.522;10.702;2023-02-28T08:51:14;100470.72;;;1.63;67.55
45621;BME280;31345;51.522;10.702;2023-02-28T08:53:44;100475.06;;;1.53;65.59
45621;BME280;31345;51.522;10.702;2023-02-28T08:56:18;100476.59;;;1.84;64.46
45621;BME280;31345;51.522;10.702;2023-02-28T08:58:50;100474.88;;;1.81;63.48
45621;BME280;31345;51.522;10.702;2023-02-28T09:01:24;100473.06;;;1.96;66.19
45621;BME280;31345;51.522;10.702;2023-02-28T09:03:58;100472.84;;;2.21;65.10
45621;BME280;31345;51.522;10.702;2023-02-28T09:06:31;100473.84;;;2.07;66.31
45621;BME280;31345;51.522;10.702;2023-02-28T09:09:04;100481.47;;;2.21;66.17
45621;BME280;31345;51.522;10.702;2023-02-28T09:11:38;100478.78;;;2.31;67.83
45621;BME280;31345;51.522;10.702;2023-02-28T09:14:10;100481.50;;;2.15;63.85
45621;BME280;31345;51.522;10.702;2023-02-28T09:16:39;100479.75;;;2.20;66.40
45621;BME280;31345;51.522;10.702;2023-02-28T09:19:13;100477.31;;;2.01;65.34
45621;BME280;31345;51.522;10.702;2023-02-28T09:21:40;100483.19;;;2.18;67.55
45621;BME280;31345;51.522;10.702;2023-02-28T09:24:13;100478.81;;;2.27;65.87
45621;BME280;31345;51.522;10.702;2023-02-28T09:26:41;100478.13;;;2.07;61.25
45621;BME280;31345;51.522;10.702;2023-02-28T09:29:09;100492.50;;;2.36;63.83
45621;BME280;31345;51.522;10.702;2023-02-28T09:31:43;100483.94;;;2.34;62.55
45621;BME280;31345;51.522;10.702;2023-02-28T09:34:11;100484.66;;;2.48;64.13
45621;BME280;31345;51.522;10.702;2023-02-28T09:36:44;100481.47;;;2.20;64.08
45621;BME280;31345;51.522;10.702;2023-02-28T09:39:16;100487.31;;;2.40;64.47
45621;BME280;31345;51.522;10.702;2023-02-28T09:41:53;100482.84;;;2.58;60.06
45621;BME280;31345;51.522;10.702;2023-02-28T09:44:26;100485.28;;;2.72;61.27
45621;BME280;31345;51.522;10.702;2023-02-28T09:47:00;100482.09;;;3.22;64.34
45621;BME280;31345;51.522;10.702;2023-02-28T09:49:37;100488.72;;;3.43;64.53
45621;BME280;31345;51.522;10.702;2023-02-28T09:52:13;100480.03;;;2.77;59.83
45621;BME280;31345;51.522;10.702;2023-02-28T09:54:47;100480.94;;;2.76;63.30
45621;BME280;31345;51.522;10.702;2023-02-28T09:57:31;100486.75;;;2.94;62.28
45621;BME280;31345;51.522;10.702;2023-02-28T10:00:10;100493.53;;;3.02;61.44
45621;BME280;31345;51.522;10.702;2023-02-28T10:02:58;100489.78;;;3.28;62.41
45621;BME280;31345;51.522;10.702;2023-02-28T10:05:38;100492.44;;;3.24;60.00
45621;BME280;31345;51.522;10.702;2023-02-28T10:08:15;100480.28;;;3.29;59.26
45621;BME280;31345;51.522;10.702;2023-02-28T10:10:51;100489.44;;;3.55;57.08
45621;BME280;31345;51.522;10.702;2023-02-28T10:13:32;100490.28;;;3.54;59.23
45621;BME280;31345;51.522;10.702;2023-02-28T10:16:03;100499.59;;;3.01;60.26
45621;BME280;31345;51.522;10.702;2023-02-28T10:18:43;100491.88;;;3.64;62.54
45621;BME280;31345;51.522;10.702;2023-02-28T10:21:18;100479.81;;;3.63;61.35
45621;BME280;31345;51.522;10.702;2023-02-28T10:23:48;100486.75;;;3.61;61.36
45621;BME280;31345;51.522;10.702;2023-02-28T10:26:22;100486.09;;;3.47;60.53
45621;BME280;31345;51.522;10.702;2023-02-28T10:28:57;100483.44;;;3.50;59.99
45621;BME280;31345;51.522;10.702;2023-02-28T10:31:30;100478.56;;;3.89;63.77
45621;BME280;31345;51.522;10.702;2023-02-28T10:34:04;100479.53;;;3.82;62.46
45621;BME280;31345;51.522;10.702;2023-02-28T10:36:37;100471.25;;;3.58;57.12
45621;BME280;31345;51.522;10.702;2023-02-28T10:39:36;100482.00;;;3.30;61.79
45621;BME280;31345;51.522;10.702;2023-02-28T10:42:21;100481.13;;;3.33;60.77
45621;BME280;31345;51.522;10.702;2023-02-28T10:45:11;100483.19;;;3.02;62.09
45621;BME280;31345;51.522;10.702;2023-02-28T10:47:53;100474.25;;;2.55;60.28
45621;BME280;31345;51.522;10.702;2023-02-28T10:50:32;100474.81;;;2.85;63.43
45621;BME280;31345;51.522;10.702;2023-02-28T10:53:31;100476.72;;;3.39;62.15
45621;BME280;31345;51.522;10.702;2023-02-28T10:56:06;100465.22;;;3.61;59.95
45621;BME280;31345;51.522;10.702;2023-02-28T10:58:52;100464.03;;;3.19;59.60
45621;BME280;31345;51.522;10.702;2023-02-28T11:01:34;100460.44;;;3.31;59.30
45621;BME280;31345;51.522;10.702;2023-02-28T11:04:18;100458.00;;;3.81;62.64
45621;BME280;31345;51.522;10.702;2023-02-28T11:06:58;100452.50;;;3.45;60.26
45621;BME280;31345;51.522;10.702;2023-02-28T11:09:33;100461.91;;;3.51;62.74
45621;BME280;31345;51.522;10.702;2023-02-28T11:12:16;100459.69;;;3.82;61.61
45621;BME280;31345;51.522;10.702;2023-02-28T11:14:55;100452.63;;;3.94;61.27
45621;BME280;31345;51.522;10.702;2023-02-28T11:17:30;100447.88;;;3.66;55.36
45621;BME280;31345;51.522;10.702;2023-02-28T11:20:05;100456.59;;;3.59;59.99
45621;BME280;31345;51.522;10.702;2023-02-28T11:22:43;100454.03;;;3.57;57.13
45621;BME280;31345;51.522;10.702;2023-02-28T11:25:22;100444.13;;;3.86;59.47
45621;BME280;31345;51.522;10.702;2023-02-28T11:27:57;100445.44;;;4.10;58.93
45621;BME280;31345;51.522;10.702;2023-02-28T11:30:35;100449.66;;;3.62;60.48
45621;BME280;31345;51.522;10.702;2023-02-28T11:33:21;100446.75;;;4.34;60.02
45621;BME280;31345;51.522;10.702;2023-02-28T11:35:57;100444.91;;;4.41;57.83
45621;BME280;31345;51.522;10.702;2023-02-28T11:38:34;100443.22;;;4.39;58.92
45621;BME280;31345;51.522;10.702;2023-02-28T11:41:22;100440.81;;;4.29;60.24
45621;BME280;31345;51.522;10.702;2023-02-28T11:44:05;100433.97;;;4.27;59.17
45621;BME280;31345;51.522;10.702;2023-02-28T11:46:46;100447.41;;;4.46;61.44
45621;BME280;31345;51.522;10.702;2023-02-28T11:49:31;100434.38;;;4.51;60.13
45621;BME280;31345;51.522;10.702;2023-02-28T11:52:09;100431.66;;;4.57;59.59
45621;BME280;31345;51.522;10.702;2023-02-28T11:55:13;100425.66;;;4.56;58.23
45621;BME280;31345;51.522;10.702;2023-02-28T12:01:06;100426.78;;;4.87;59.11
45621;BME280;31345;51.522;10.702;2023-02-28T12:03:45;100428.16;;;4.12;57.52
45621;BME280;31345;51.522;10.702;2023-02-28T12:06:25;100424.94;;;3.98;59.57
45621;BME280;31345;51.522;10.702;2023-02-28T12:09:15;100423.19;;;4.01;58.42
45621;BME280;31345;51.522;10.702;2023-02-28T12:11:55;100418.06;;;3.97;57.46
45621;BME280;31345;51.522;10.702;2023-02-28T12:14:36;100414.13;;;4.24;61.21
45621;BME280;31345;51.522;10.702;2023-02-28T12:17:22;100410.72;;;4.68;61.43
45621;BME280;31345;51.522;10.702;2023-02-28T12:20:08;100418.31;;;4.79;61.23
45621;BME280;31345;51.522;10.702;2023-02-28T12:22:46;100411.41;;;4.76;61.06
45621;BME280;31345;51.522;10.702;2023-02-28T12:25:43;100409.47;;;4.45;61.29
45621;BME280;31345;51.522;10.702;2023-02-28T12:28:24;100414.81;;;4.34;63.47
45621;BME280;31345;51.522;10.702;2023-02-28T12:31:02;100415.16;;;4.17;60.48
45621;BME280;31345;51.522;10.702;2023-02-28T12:33:41;100406.78;;;4.01;60.33
45621;BME280;31345;51.522;10.702;2023-02-28T12:36:17;100419.72;;;4.48;63.81
45621;BME280;31345;51.522;10.702;2023-02-28T12:38:55;100411.94;;;4.50;60.67
45621;BME280;31345;51.522;10.702;2023-02-28T12:41:34;100402.94;;;4.24;58.14
45621;BME280;31345;51.522;10.702;2023-02-28T12:44:14;100405.03;;;4.03;58.37
45621;BME280;31345;51.522;10.702;2023-02-28T12:46:51;100396.13;;;4.18;60.00
45621;BME280;31345;51.522;10.702;2023-02-28T12:49:31;100389.03;;;3.80;55.97
45621;BME280;31345;51.522;10.702;2023-02-28T12:52:05;100394.00;;;4.40;61.13
45621;BME280;31345;51.522;10.702;2023-02-28T12:54:47;100385.09;;;4.54;62.14
45621;BME280;31345;51.522;10.702;2023-02-28T12:57:22;100389.88;;;4.30;59.05
45621;BME280;31345;51.522;10.702;2023-02-28T13:00:02;100383.25;;;4.15;58.02
45621;BME280;31345;51.522;10.702;2023-02-28T13:02:49;100387.16;;;4.36;59.15
45621;BME280;31345;51.522;10.702;2023-02-28T13:11:24;100387.22;;;4.79;59.66
45621;BME280;31345;51.522;10.702;2023-02-28T13:13:58;100378.22;;;4.53;57.58
45621;BME280;31345;51.522;10.702;2023-02-28T13:16:27;100378.34;;;4.46;58.57
45621;BME280;31345;51.522;10.702;2023-02-28T13:19:09;100382.94;;;4.32;60.75
45621;BME280;31345;51.522;10.702;2023-02-28T13:21:44;100381.56;;;4.58;59.17
45621;BME280;31345;51.522;10.702;2023-02-28T13:24:40;100388.59;;;4.51;60.03
45621;BME280;31345;51.522;10.702;2023-02-28T13:27:35;100376.38;;;4.58;59.48
45621;BME280;31345;51.522;10.702;2023-02-28T13:33:26;100379.13;;;4.04;61.30
45621;BME280;31345;51.522;10.702;2023-02-28T13:36:08;100374.47;;;3.75;59.63
45621;BME280;31345;51.522;10.702;2023-02-28T13:38:41;100364.25;;;3.65;59.33
45621;BME280;31345;51.522;10.702;2023-02-28T13:41:44;100373.44;;;3.84;60.48